Terminal Aerodrome Forecast
Issued by NWS

Home | Current Version | Previous Version | Text Only | Print | Product List | Glossary On
Versions: 1 2 3 4 5 6 7 8 9 10 11 12 13 14
000
FTUS46 KSTO 240536
TAFRDD
TAF
KRDD 240536Z 2406/2506 21005KT P6SM -RA OVC060
      TEMPO 2412/2415 P6SM -RA OVC025
     FM241500 16010KT P6SM VCSH OVC020
      TEMPO 2415/2419 SCT020 BKN070
     FM250300 19005KT P6SM BKN050 OVC150=

USA.gov is the U.S. government's official web portal to all federal, state and local government web resources and services.